Time;durP1;ratioP1;P1;durP2;ratioP2;P2;SDS_P1;SDS_P2;PMS_P1;PMS_P2;Temp;Humidity;BMP_temperature;BMP_pressure;BME280_temperature;BME280_humidity;BME280_pressure;Samples;Min_cycle;Max_cycle;Signal;HPM_P1;HPM_P2
2022/06/09 00:00:43;;;;;;;;;2.75;2.75;;;;;16.30;90.43;99049.03;5075947;28;46224;-59
2022/06/09 00:03:18;;;;;;;;;1.80;1.80;;;;;16.33;91.49;99055.03;5078373;28;45401;-59
2022/06/09 00:05:45;;;;;;;;;2.40;2.40;;;;;16.36;91.26;99052.19;5075167;28;45522;-59
2022/06/09 00:08:11;;;;;;;;;2.75;1.50;;;;;16.40;91.96;99059.00;5069119;28;45575;-59
2022/06/09 00:10:40;;;;;;;;;1.00;1.00;;;;;16.45;92.04;99068.47;5073489;28;45515;-59
2022/06/09 00:13:05;;;;;;;;;1.80;1.80;;;;;16.51;92.31;99065.44;5067463;28;45373;-59
2022/06/09 00:15:31;;;;;;;;;1.75;1.75;;;;;16.57;92.83;99065.03;5072760;28;45681;-59
2022/06/09 00:17:56;;;;;;;;;0.00;0.00;;;;;16.65;93.27;99062.75;5072758;28;45525;-59
2022/06/09 00:20:22;;;;;;;;;1.50;0.75;;;;;16.72;92.67;99064.91;5070688;28;45586;-59
2022/06/09 00:22:48;;;;;;;;;3.00;3.00;;;;;16.78;92.30;99063.63;5070985;28;45356;-59
2022/06/09 00:25:13;;;;;;;;;4.00;3.50;;;;;16.83;92.07;99071.34;5075648;28;45665;-59
2022/06/09 00:27:39;;;;;;;;;3.00;3.00;;;;;16.86;91.35;99061.34;5068299;28;45448;-59
2022/06/09 00:30:07;;;;;;;;;3.50;2.75;;;;;16.90;91.27;99051.34;5074455;28;46446;-59
2022/06/09 00:32:33;;;;;;;;;2.20;2.00;;;;;16.91;90.85;99053.91;5048359;28;45422;-59
2022/06/09 00:34:58;;;;;;;;;2.25;2.25;;;;;16.93;90.63;99062.63;5073280;28;45448;-59
2022/06/09 00:37:23;;;;;;;;;2.00;2.00;;;;;16.96;90.33;99061.56;5064708;28;45346;-59
2022/06/09 00:39:49;;;;;;;;;2.00;2.00;;;;;16.97;90.71;99055.28;5076694;28;45550;-59
2022/06/09 00:42:14;;;;;;;;;1.75;1.75;;;;;17.00;90.92;99047.09;5076470;28;45177;-59
2022/06/09 00:44:39;;;;;;;;;2.00;2.00;;;;;17.02;90.87;99050.50;5073565;28;45515;-59
2022/06/09 00:47:23;;;;;;;;;3.00;2.00;;;;;17.07;90.59;99059.06;5076029;28;45551;-59
2022/06/09 00:49:57;;;;;;;;;1.00;1.00;;;;;17.07;88.08;99057.25;5076275;28;46503;-59
2022/06/09 00:52:26;;;;;;;;;0.20;0.20;;;;;17.02;86.12;99062.00;5074482;28;45714;-59
2022/06/09 00:54:58;;;;;;;;;2.00;1.00;;;;;16.88;86.83;99069.22;5058063;28;45357;-59
2022/06/09 00:57:30;;;;;;;;;2.00;0.40;;;;;16.74;87.33;99062.16;5072699;28;45459;-59
2022/06/09 01:00:03;;;;;;;;;0.80;0.80;;;;;16.56;88.08;99050.03;5076116;28;46222;-59
2022/06/09 01:02:29;;;;;;;;;2.00;0.80;;;;;16.47;88.87;99059.44;5065975;28;45374;-59
2022/06/09 01:04:54;;;;;;;;;2.00;1.00;;;;;16.40;90.64;99059.00;5072942;28;45411;-59
2022/06/09 01:07:28;;;;;;;;;2.25;0.75;;;;;16.33;91.17;99048.84;5070035;28;45456;-59
2022/06/09 01:09:53;;;;;;;;;1.00;1.00;;;;;16.26;92.09;99051.03;5074517;28;45640;-59
2022/06/09 01:12:37;;;;;;;;;0.75;0.75;;;;;16.23;92.04;99047.75;5066425;28;45519;-59
2022/06/09 01:15:14;;;;;;;;;0.80;0.80;;;;;16.19;91.83;99040.91;5069335;28;45508;-59
2022/06/09 01:17:51;;;;;;;;;1.75;1.75;;;;;16.15;91.78;99037.59;5076854;28;45485;-59
2022/06/09 01:20:52;;;;;;;;;1.60;1.60;;;;;16.11;91.41;99025.44;5068845;28;46340;-59
2022/06/09 01:23:32;;;;;;;;;1.40;1.40;;;;;16.09;91.79;99034.50;4998631;28;45492;-59
2022/06/09 01:26:12;;;;;;;;;0.80;0.80;;;;;16.07;90.48;99018.63;5073893;28;45535;-59
2022/06/09 01:29:10;;;;;;;;;0.25;0.25;;;;;16.04;90.15;99016.16;5076767;28;45460;-59
2022/06/09 01:31:54;;;;;;;;;1.00;1.00;;;;;16.05;90.49;99016.06;5072468;28;45647;-59
2022/06/09 01:34:23;;;;;;;;;1.60;1.40;;;;;16.06;90.72;99022.22;5075786;28;45376;-59
2022/06/09 01:37:07;;;;;;;;;1.00;1.00;;;;;16.08;90.92;99015.00;5076465;28;45400;-59
2022/06/09 01:39:53;;;;;;;;;1.40;1.40;;;;;16.11;90.88;99011.28;5056357;28;45354;-59
2022/06/09 01:42:37;;;;;;;;;1.80;1.80;;;;;16.15;91.52;99012.78;5069287;28;46411;-59
2022/06/09 01:45:22;;;;;;;;;3.60;3.00;;;;;16.22;91.56;99014.13;5074943;28;45436;-59
2022/06/09 01:47:53;;;;;;;;;4.00;2.25;;;;;16.28;92.06;99016.34;5042242;28;45460;-59
2022/06/09 01:50:30;;;;;;;;;0.75;0.75;;;;;16.32;91.59;99010.75;5069608;28;45492;-59
2022/06/09 01:52:59;;;;;;;;;1.80;1.80;;;;;16.38;91.46;99010.38;5052088;28;45378;-59
2022/06/09 01:55:28;;;;;;;;;2.00;1.80;;;;;16.42;91.66;99017.16;5069100;28;45456;-59
2022/06/09 01:57:58;;;;;;;;;2.80;2.80;;;;;16.46;90.50;99009.84;5074593;28;45591;-59
2022/06/09 02:00:25;;;;;;;;;1.00;0.75;;;;;16.44;88.98;99022.38;5075614;28;45500;-59
2022/06/09 02:03:00;;;;;;;;;1.80;0.20;;;;;16.37;87.60;99024.63;5067287;28;45416;-59
2022/06/09 02:05:29;;;;;;;;;1.60;0.60;;;;;16.32;87.34;99021.41;5074303;28;45404;-59
2022/06/09 02:07:57;;;;;;;;;1.80;0.60;;;;;16.25;87.82;99022.75;5076574;28;45312;-59
2022/06/09 02:10:34;;;;;;;;;0.75;0.75;;;;;16.21;88.37;99026.56;5054309;28;45428;-59
2022/06/09 02:13:07;;;;;;;;;0.80;0.00;;;;;16.15;89.40;99028.75;5074519;28;46584;-59
2022/06/09 02:15:38;;;;;;;;;0.20;0.20;;;;;16.09;89.30;99047.78;5064206;28;45517;-59
2022/06/09 02:18:07;;;;;;;;;0.00;0.00;;;;;15.99;88.30;99042.19;5067019;28;45542;-59
2022/06/09 02:20:35;;;;;;;;;1.00;0.75;;;;;15.90;89.03;99040.13;5069669;28;45378;-59
2022/06/09 02:23:00;;;;;;;;;0.60;0.00;;;;;15.81;90.39;99033.56;5075355;28;45678;-59
2022/06/09 02:25:25;;;;;;;;;1.00;1.00;;;;;15.70;90.79;99034.25;5072158;28;45309;-59
2022/06/09 02:27:51;;;;;;;;;0.50;0.50;;;;;15.61;90.81;99029.47;5067527;28;45470;-59
2022/06/09 02:30:16;;;;;;;;;1.00;0.00;;;;;15.55;90.95;99031.66;5071441;28;45464;-59
2022/06/09 02:32:41;;;;;;;;;0.50;0.50;;;;;15.51;90.12;99041.59;5062908;28;46270;-59
2022/06/09 02:35:07;;;;;;;;;0.00;0.00;;;;;15.51;89.34;99046.06;5066632;28;45380;-59
2022/06/09 02:37:33;;;;;;;;;0.00;0.00;;;;;15.52;88.85;99039.81;5075740;28;45516;-59
2022/06/09 02:39:58;;;;;;;;;0.00;0.00;;;;;15.50;89.15;99050.53;5074918;28;45459;-59
2022/06/09 02:42:24;;;;;;;;;0.00;0.00;;;;;15.47;89.73;99044.53;5072648;28;45594;-59
2022/06/09 02:44:49;;;;;;;;;0.00;0.00;;;;;15.42;89.04;99041.28;5074537;28;45551;-59
2022/06/09 02:47:15;;;;;;;;;0.50;0.00;;;;;15.35;89.94;99046.16;5071641;28;45423;-59
2022/06/09 02:49:41;;;;;;;;;2.00;0.00;;;;;15.28;90.20;99047.44;5072729;28;45485;-59
2022/06/09 02:52:07;;;;;;;;;0.00;0.00;;;;;15.22;90.92;99056.66;5071087;28;46361;-59
2022/06/09 02:54:32;;;;;;;;;0.00;0.00;;;;;15.17;91.68;99055.22;5074616;28;45338;-58
2022/06/09 02:56:58;;;;;;;;;0.00;0.00;;;;;15.10;92.74;99059.16;5069876;28;45432;-59
2022/06/09 02:59:23;;;;;;;;;0.00;0.00;;;;;15.06;93.22;99052.34;5075192;28;45389;-58
2022/06/09 03:01:49;;;;;;;;;1.00;0.00;;;;;15.04;93.64;99047.13;5068759;28;46219;-59
2022/06/09 03:04:14;;;;;;;;;0.00;0.00;;;;;15.03;93.54;99042.78;5074766;28;45347;-58
2022/06/09 03:06:39;;;;;;;;;0.00;0.00;;;;;15.06;92.76;99057.66;5050249;28;45518;-59
2022/06/09 03:09:05;;;;;;;;;1.00;0.75;;;;;15.06;91.24;99047.91;5074971;28;45420;-59
2022/06/09 03:11:30;;;;;;;;;2.25;1.00;;;;;15.07;91.10;99043.44;5071003;28;46141;-58
2022/06/09 03:13:56;;;;;;;;;1.00;1.00;;;;;15.11;89.84;99052.91;5073464;28;45400;-59
2022/06/09 03:16:21;;;;;;;;;0.00;0.00;;;;;15.19;90.88;99067.47;5066116;28;45389;-59
2022/06/09 03:18:47;;;;;;;;;1.00;1.00;;;;;15.28;89.13;99060.72;5051148;28;45405;-59
2022/06/09 03:21:14;;;;;;;;;1.00;1.00;;;;;15.39;89.95;99068.06;5055212;28;45928;-58
2022/06/09 03:23:40;;;;;;;;;0.80;0.80;;;;;15.43;89.37;99072.22;5075164;28;45359;-59
2022/06/09 03:26:06;;;;;;;;;2.50;1.00;;;;;15.42;88.75;99086.47;5074207;28;45547;-59
2022/06/09 03:28:31;;;;;;;;;1.00;1.00;;;;;15.44;88.99;99085.41;5073579;28;45419;-59
2022/06/09 03:30:59;;;;;;;;;1.00;1.00;;;;;15.48;89.38;99078.97;5071439;28;45515;-58
2022/06/09 03:33:24;;;;;;;;;2.20;1.40;;;;;15.57;89.80;99082.94;5071625;28;45360;-59
2022/06/09 03:35:50;;;;;;;;;1.00;0.50;;;;;15.63;90.85;99074.56;5069969;28;45433;-59
2022/06/09 03:38:16;;;;;;;;;1.75;1.25;;;;;15.70;91.27;99076.75;5069572;28;45457;-59
2022/06/09 03:40:41;;;;;;;;;3.25;1.50;;;;;15.78;91.40;99086.91;5072800;28;46104;-59
2022/06/09 03:43:07;;;;;;;;;1.00;1.00;;;;;15.85;92.26;99077.63;5074648;28;45384;-59
2022/06/09 03:45:33;;;;;;;;;4.00;2.50;;;;;15.92;91.92;99084.25;5053669;28;45393;-59
2022/06/09 03:47:59;;;;;;;;;2.75;2.75;;;;;15.98;92.21;99083.88;5068402;28;45344;-59
2022/06/09 03:50:27;;;;;;;;;1.25;1.25;;;;;16.06;91.82;99088.72;5069462;28;46594;-59
2022/06/09 03:52:54;;;;;;;;;2.20;2.20;;;;;16.14;91.80;99096.19;5071835;28;45384;-60
2022/06/09 03:55:20;;;;;;;;;2.60;2.20;;;;;16.19;91.80;99097.63;5073204;28;45372;-59
2022/06/09 03:57:46;;;;;;;;;1.80;1.80;;;;;16.26;91.47;99088.28;5074619;28;45358;-59
2022/06/09 04:00:18;;;;;;;;;2.25;2.25;;;;;16.32;91.17;99090.56;5074125;28;45988;-59
2022/06/09 04:02:43;;;;;;;;;1.60;1.60;;;;;16.36;90.51;99093.88;5074039;28;45407;-58
2022/06/09 04:05:09;;;;;;;;;1.75;1.75;;;;;16.39;90.88;99094.56;5072823;28;45330;-59
2022/06/09 04:07:34;;;;;;;;;2.00;2.00;;;;;16.45;91.25;99103.94;5067794;28;45411;-59
2022/06/09 04:10:00;;;;;;;;;2.75;2.75;;;;;16.49;90.37;99105.44;5072707;28;46233;-59
2022/06/09 04:12:25;;;;;;;;;4.50;1.75;;;;;16.51;89.71;99098.22;5065333;28;45462;-59
2022/06/09 04:14:51;;;;;;;;;1.00;1.00;;;;;16.50;87.50;99112.47;5073259;28;45461;-57
2022/06/09 04:17:17;;;;;;;;;1.00;1.00;;;;;16.50;87.75;99108.97;5066241;28;45461;-59
2022/06/09 04:19:42;;;;;;;;;2.00;1.00;;;;;16.51;87.55;99108.88;5071271;28;46542;-59
2022/06/09 04:22:08;;;;;;;;;1.75;1.75;;;;;16.52;87.26;99110.56;5065819;28;45366;-59
2022/06/09 04:24:33;;;;;;;;;2.00;1.00;;;;;16.53;87.39;99106.13;5042772;28;45425;-59
2022/06/09 04:26:59;;;;;;;;;0.75;0.75;;;;;16.54;86.87;99102.50;5073969;28;45624;-59
2022/06/09 04:29:25;;;;;;;;;1.00;0.75;;;;;16.53;85.58;99095.47;5072647;28;46500;-59
2022/06/09 04:31:50;;;;;;;;;2.00;1.50;;;;;16.52;85.87;99099.94;5047354;28;45394;-59
2022/06/09 04:34:15;;;;;;;;;1.00;1.00;;;;;16.51;86.26;99098.22;5068396;28;45661;-59
2022/06/09 04:36:41;;;;;;;;;0.75;0.75;;;;;16.50;85.45;99101.84;5076502;28;45569;-59
2022/06/09 04:39:07;;;;;;;;;2.00;2.00;;;;;16.44;85.45;99109.34;5071074;28;45747;-59
2022/06/09 04:41:33;;;;;;;;;1.80;0.80;;;;;16.37;84.47;99109.75;5073845;28;45400;-59
2022/06/09 04:43:59;;;;;;;;;2.00;2.00;;;;;16.38;84.96;99113.28;5076405;28;45633;-59
2022/06/09 04:46:24;;;;;;;;;1.00;1.00;;;;;16.36;84.69;99110.72;5073298;28;45504;-59
2022/06/09 04:48:51;;;;;;;;;1.50;1.50;;;;;16.35;84.65;99114.31;5076586;28;46365;-59
2022/06/09 04:51:19;;;;;;;;;2.00;1.20;;;;;16.33;84.24;99110.03;5075666;28;45470;-58
2022/06/09 04:53:45;;;;;;;;;1.80;1.80;;;;;16.33;85.46;99113.56;5076388;28;45369;-59
2022/06/09 04:56:11;;;;;;;;;2.50;2.50;;;;;16.38;85.63;99110.63;5057992;28;45471;-59
2022/06/09 04:58:38;;;;;;;;;1.75;1.75;;;;;16.40;84.95;99114.03;5063061;28;45449;-59
2022/06/09 05:01:12;;;;;;;;;2.40;1.80;;;;;16.40;85.52;99122.88;5075965;28;45441;-59
2022/06/09 05:03:38;;;;;;;;;4.60;1.20;;;;;16.35;86.46;99121.44;5062601;28;45456;-58
2022/06/09 05:06:03;;;;;;;;;1.00;1.00;;;;;16.31;84.96;99123.44;5075504;28;46098;-59
2022/06/09 05:08:29;;;;;;;;;2.25;1.75;;;;;16.27;84.61;99121.06;5075786;28;45486;-59
2022/06/09 05:10:54;;;;;;;;;2.00;2.00;;;;;16.23;85.58;99115.09;5072372;28;45408;-59
2022/06/09 05:13:19;;;;;;;;;1.50;1.50;;;;;16.19;85.49;99124.22;5074270;28;45415;-59
2022/06/09 05:15:51;;;;;;;;;2.00;2.00;;;;;16.17;86.43;99119.94;5072030;28;45448;-59
2022/06/09 05:18:18;;;;;;;;;1.20;0.80;;;;;16.13;85.59;99127.25;5067631;28;45724;-59
2022/06/09 05:20:44;;;;;;;;;1.20;1.20;;;;;16.07;85.68;99111.72;5070997;28;45487;-58
2022/06/09 05:23:09;;;;;;;;;1.75;1.75;;;;;16.05;85.87;99125.09;5062467;28;45455;-58
2022/06/09 05:25:34;;;;;;;;;2.00;2.00;;;;;16.01;85.83;99117.41;5072438;28;45390;-59
2022/06/09 05:28:00;;;;;;;;;4.00;3.25;;;;;16.01;86.70;99120.06;5070819;28;46424;-59
2022/06/09 05:30:25;;;;;;;;;2.00;2.00;;;;;16.09;87.76;99116.94;5071810;28;45397;-59
2022/06/09 05:32:52;;;;;;;;;1.00;1.00;;;;;16.16;86.30;99120.91;5068388;28;45426;-59
2022/06/09 05:35:19;;;;;;;;;2.75;2.75;;;;;16.19;85.52;99126.03;5074339;28;45452;-59
2022/06/09 05:46:00;;;;;;;;;4.00;4.00;;;;;16.14;83.86;99144.06;5073096;28;45516;-59
2022/06/09 05:48:26;;;;;;;;;4.00;2.50;;;;;16.13;84.71;99137.91;5056928;28;45647;-58
2022/06/09 05:50:52;;;;;;;;;7.00;5.00;;;;;16.21;86.50;99142.75;5056032;28;45537;-59
2022/06/09 05:53:18;;;;;;;;;5.20;4.00;;;;;16.30;86.20;99148.34;5075450;28;45439;-59
2022/06/09 05:55:44;;;;;;;;;2.75;2.75;;;;;16.37;84.43;99143.50;5071900;28;45505;-59
2022/06/09 05:58:10;;;;;;;;;2.25;2.25;;;;;16.37;84.09;99131.03;5072913;28;46044;-59
2022/06/09 06:00:36;;;;;;;;;2.60;2.00;;;;;16.42;86.00;99143.22;5070849;28;45507;-59
2022/06/09 06:03:01;;;;;;;;;4.00;2.25;;;;;16.42;83.89;99141.41;5070309;28;45361;-59
2022/06/09 06:08:10;;;;;;;;;3.60;3.60;;;;;16.44;84.09;99141.28;5068623;28;45688;-59
2022/06/09 06:10:36;;;;;;;;;7.00;4.75;;;;;16.43;83.59;99145.75;5052298;28;45520;-59
2022/06/09 06:13:01;;;;;;;;;5.00;3.75;;;;;16.40;84.58;99148.63;5066611;28;46042;-59
2022/06/09 06:15:27;;;;;;;;;3.75;2.75;;;;;16.33;84.62;99147.28;5056034;28;45506;-59
2022/06/09 06:17:54;;;;;;;;;5.00;2.50;;;;;16.31;85.61;99157.16;5062391;28;46456;-59
2022/06/09 06:20:20;;;;;;;;;2.80;2.80;;;;;16.31;85.59;99152.72;5074287;28;45486;-59
2022/06/09 06:22:45;;;;;;;;;3.50;2.75;;;;;16.33;85.65;99153.47;5075353;28;45464;-55
2022/06/09 06:25:11;;;;;;;;;3.50;3.50;;;;;16.36;84.86;99161.25;5072304;28;45497;-59
2022/06/09 06:27:36;;;;;;;;;2.75;1.75;;;;;16.31;84.72;99152.72;5068058;28;46435;-59
2022/06/09 06:30:02;;;;;;;;;4.00;3.50;;;;;16.28;84.71;99184.81;5062811;28;45450;-59
2022/06/09 06:32:27;;;;;;;;;4.40;3.00;;;;;16.24;85.43;99170.03;5060431;28;45535;-59
2022/06/09 06:34:53;;;;;;;;;3.00;3.00;;;;;16.23;84.78;99170.13;5071758;28;45474;-59
2022/06/09 06:37:18;;;;;;;;;5.00;4.00;;;;;16.22;84.80;99171.06;5074826;28;45423;-59
2022/06/09 06:39:44;;;;;;;;;2.75;1.25;;;;;16.22;85.03;99179.91;5072641;28;45439;-59
2022/06/09 06:42:09;;;;;;;;;2.50;2.50;;;;;16.21;84.63;99169.34;5074282;28;45415;-59
2022/06/09 06:44:34;;;;;;;;;4.50;3.50;;;;;16.16;85.46;99166.13;5062711;28;45490;-59
2022/06/09 06:47:00;;;;;;;;;2.50;2.50;;;;;16.19;84.68;99163.28;5074695;28;45430;-59
2022/06/09 06:49:25;;;;;;;;;2.00;1.75;;;;;16.22;85.23;99166.59;5074061;28;45477;-59
2022/06/09 06:51:51;;;;;;;;;2.50;2.50;;;;;16.29;85.22;99173.22;5074188;28;46027;-59
2022/06/09 06:54:17;;;;;;;;;1.50;1.50;;;;;16.38;85.12;99195.75;5073592;28;45369;-60
2022/06/09 06:56:42;;;;;;;;;3.25;3.25;;;;;16.45;84.36;99199.72;5070705;28;45519;-60
2022/06/09 06:59:08;;;;;;;;;5.50;3.50;;;;;16.50;85.38;99186.16;5071220;28;45340;-59
2022/06/09 07:01:34;;;;;;;;;3.50;3.25;;;;;16.57;85.65;99203.44;5070596;28;45694;-59
2022/06/09 07:04:00;;;;;;;;;2.50;2.00;;;;;16.62;84.22;99209.31;5069226;28;45435;-58
2022/06/09 07:06:25;;;;;;;;;2.50;2.25;;;;;16.64;84.11;99220.75;5050796;28;46425;-59
2022/06/09 07:08:51;;;;;;;;;4.00;2.75;;;;;16.62;82.35;99217.31;5067598;28;45312;-57
2022/06/09 07:11:16;;;;;;;;;0.75;0.75;;;;;16.62;79.61;99230.59;5070434;28;45464;-60
2022/06/09 07:13:43;;;;;;;;;2.50;1.00;;;;;16.61;80.23;99224.44;5047588;28;45432;-60
2022/06/09 07:16:09;;;;;;;;;2.00;2.00;;;;;16.65;80.40;99223.31;5072971;28;49174;-60
2022/06/09 07:18:37;;;;;;;;;1.00;1.00;;;;;16.69;80.18;99224.84;5064206;28;45406;-60
2022/06/09 07:21:03;;;;;;;;;2.60;2.00;;;;;16.77;81.43;99224.34;5071806;28;45395;-59
2022/06/09 07:23:30;;;;;;;;;2.00;2.00;;;;;16.84;79.77;99232.81;5074386;28;45355;-59
2022/06/09 07:25:56;;;;;;;;;2.00;2.00;;;;;16.86;79.89;99249.53;5073082;28;45464;-59
2022/06/09 07:28:23;;;;;;;;;3.60;2.00;;;;;16.88;79.60;99247.66;5073877;28;45349;-59
2022/06/09 07:30:49;;;;;;;;;1.00;1.00;;;;;16.89;79.43;99254.69;5072052;28;45353;-59
2022/06/09 07:33:14;;;;;;;;;1.25;1.25;;;;;16.93;79.27;99261.50;5072076;28;45552;-59
2022/06/09 07:35:41;;;;;;;;;3.00;1.00;;;;;16.91;79.49;99252.78;5073271;28;45480;-59
2022/06/09 07:38:09;;;;;;;;;11.60;7.60;;;;;16.92;80.85;99251.81;5073538;28;45359;-59
2022/06/09 07:40:37;;;;;;;;;2.00;2.00;;;;;16.99;80.63;99255.78;5071238;28;45349;-59
2022/06/09 07:43:03;;;;;;;;;2.50;2.00;;;;;17.04;80.86;99249.22;5072244;28;45395;-59
2022/06/09 07:45:29;;;;;;;;;2.25;2.00;;;;;17.09;79.89;99255.09;5073056;28;45417;-59
2022/06/09 07:47:54;;;;;;;;;2.80;2.20;;;;;17.10;80.11;99254.13;5074034;28;45372;-59
2022/06/09 07:50:20;;;;;;;;;2.00;2.00;;;;;17.12;80.28;99247.84;5072812;28;45938;-59
2022/06/09 07:52:46;;;;;;;;;2.50;2.00;;;;;17.19;80.21;99244.72;5073739;28;45631;-59
2022/06/09 07:55:14;;;;;;;;;2.00;2.00;;;;;17.30;79.88;99241.34;5073045;28;45516;-59
2022/06/09 07:57:40;;;;;;;;;3.00;3.00;;;;;17.40;80.10;99239.78;5068844;28;45484;-59
2022/06/09 08:00:09;;;;;;;;;2.00;2.00;;;;;17.49;78.93;99235.66;5073813;28;45836;-59
2022/06/09 08:02:35;;;;;;;;;2.00;2.00;;;;;17.60;78.03;99243.78;5072250;28;45407;-59
2022/06/09 08:05:00;;;;;;;;;1.75;1.75;;;;;17.59;76.97;99237.63;5054937;28;45532;-59
2022/06/09 08:07:26;;;;;;;;;1.50;1.00;;;;;17.47;76.69;99235.75;5068760;28;45354;-59
2022/06/09 08:09:52;;;;;;;;;1.20;1.20;;;;;17.36;77.09;99243.59;5056440;28;45368;-59
2022/06/09 08:12:18;;;;;;;;;4.00;2.00;;;;;17.23;78.23;99243.56;5076009;28;45511;-59
2022/06/09 08:14:43;;;;;;;;;3.75;3.00;;;;;17.10;78.69;99248.81;5071083;28;45944;-59
2022/06/09 08:17:09;;;;;;;;;3.00;3.00;;;;;17.02;79.56;99244.94;5051348;28;45943;-59
2022/06/09 08:19:35;;;;;;;;;2.00;0.80;;;;;17.02;79.56;99245.81;5051119;28;45478;-59
2022/06/09 08:22:00;;;;;;;;;1.00;1.00;;;;;16.95;80.37;99243.63;5074965;28;45496;-60
2022/06/09 08:24:26;;;;;;;;;1.00;1.00;;;;;16.86;81.21;99244.22;5077006;28;45487;-59
2022/06/09 08:26:51;;;;;;;;;3.00;3.00;;;;;16.80;81.78;99252.59;5070101;28;45501;-59
2022/06/09 08:29:17;;;;;;;;;3.25;2.25;;;;;16.78;81.40;99244.69;5077297;28;45509;-59
2022/06/09 08:31:43;;;;;;;;;3.00;3.00;;;;;16.77;81.86;99242.13;5066701;28;45480;-59
2022/06/09 08:34:11;;;;;;;;;2.00;2.00;;;;;16.80;82.51;99233.94;5076905;28;45537;-59
2022/06/09 08:36:37;;;;;;;;;2.00;2.00;;;;;16.90;81.50;99235.09;5076574;28;45222;-59
2022/06/09 08:39:03;;;;;;;;;4.50;3.25;;;;;17.09;81.96;99238.28;5076343;28;45655;-59
2022/06/09 08:41:42;;;;;;;;;2.00;2.00;;;;;17.33;80.10;99249.13;5074473;28;45431;-59
2022/06/09 08:44:16;;;;;;;;;1.00;1.00;;;;;17.47;78.95;99241.06;5064693;28;45865;-59
2022/06/09 08:47:01;;;;;;;;;3.00;2.00;;;;;17.50;78.93;99243.53;5072011;28;45525;-59
2022/06/09 08:50:11;;;;;;;;;2.00;2.00;;;;;17.50;78.32;99242.69;5074610;28;45395;-59
2022/06/09 08:52:45;;;;;;;;;3.00;3.00;;;;;17.53;78.33;99248.69;5025320;28;45543;-59
2022/06/09 08:55:38;;;;;;;;;2.80;2.40;;;;;17.63;78.76;99255.09;5069004;28;46298;-59
2022/06/09 08:58:11;;;;;;;;;2.20;2.20;;;;;17.79;79.16;99255.81;5067097;28;45574;-59
2022/06/09 09:00:42;;;;;;;;;2.00;2.00;;;;;17.87;77.91;99257.97;5056088;28;45531;-59
2022/06/09 09:03:17;;;;;;;;;3.75;2.75;;;;;17.73;76.08;99279.38;5066188;28;45484;-59
2022/06/09 09:05:51;;;;;;;;;2.00;2.00;;;;;17.50;76.78;99280.00;5069724;28;46473;-59
2022/06/09 09:08:16;;;;;;;;;2.00;2.00;;;;;17.27;78.23;99277.03;5045467;28;45334;-59
2022/06/09 09:11:22;;;;;;;;;3.75;3.00;;;;;17.12;79.49;99277.16;5071956;28;45565;-59
2022/06/09 09:13:54;;;;;;;;;2.25;2.25;;;;;17.01;81.09;99293.84;5070881;28;45615;-59
2022/06/09 09:16:48;;;;;;;;;2.00;2.00;;;;;16.84;81.11;99278.94;5075091;28;46323;-59
2022/06/09 09:19:29;;;;;;;;;2.80;2.60;;;;;16.66;82.78;99312.88;5045321;28;45525;-59
2022/06/09 09:21:54;;;;;;;;;2.00;2.00;;;;;16.54;82.42;99300.31;5066598;28;45466;-59
2022/06/09 09:24:31;;;;;;;;;2.00;2.00;;;;;16.49;82.99;99299.72;5065889;28;45553;-59
2022/06/09 09:27:09;;;;;;;;;3.00;3.00;;;;;16.49;82.90;99286.41;5075992;28;45448;-59
2022/06/09 09:29:47;;;;;;;;;4.20;2.80;;;;;16.58;83.34;99303.66;5073495;28;45502;-60
2022/06/09 09:32:21;;;;;;;;;3.00;1.50;;;;;16.58;83.02;99296.50;5067737;28;45390;-60
2022/06/09 09:34:49;;;;;;;;;1.00;0.25;;;;;16.54;81.56;99297.66;5075142;28;45457;-59
2022/06/09 09:37:26;;;;;;;;;3.25;3.00;;;;;16.55;81.69;99293.19;5072121;28;46258;-60
2022/06/09 09:40:12;;;;;;;;;7.60;5.20;;;;;16.58;80.90;99301.84;5062783;28;45471;-58
2022/06/09 09:42:42;;;;;;;;;3.00;3.00;;;;;16.61;80.38;99298.97;5071032;28;45452;-60
2022/06/09 09:45:11;;;;;;;;;2.25;2.25;;;;;16.66;80.12;99306.69;5067005;28;45444;-60
2022/06/09 09:47:42;;;;;;;;;2.50;2.00;;;;;16.72;78.81;99298.34;5074005;28;45503;-60
2022/06/09 09:50:25;;;;;;;;;3.00;3.00;;;;;16.79;78.85;99301.47;5075602;28;45362;-59
2022/06/09 09:53:01;;;;;;;;;2.25;1.75;;;;;16.88;77.17;99300.91;5073119;28;45334;-59
2022/06/09 09:55:40;;;;;;;;;4.00;4.00;;;;;16.98;78.67;99302.03;5073596;28;45473;-59
2022/06/09 09:58:23;;;;;;;;;3.00;3.00;;;;;17.12;78.92;99299.31;5067953;28;45705;-60
2022/06/09 10:00:55;;;;;;;;;4.80;4.00;;;;;17.38;78.58;99311.00;5069350;28;45342;-59
2022/06/09 10:09:37;;;;;;;;;6.60;4.80;;;;;18.13;74.99;99302.41;5056798;28;45846;-59
2022/06/09 10:12:16;;;;;;;;;6.20;4.40;;;;;18.31;75.68;99308.28;5075034;28;45546;-60
2022/06/09 10:15:09;;;;;;;;;5.50;5.50;;;;;18.40;74.47;99312.16;5074622;28;45491;-59
2022/06/09 10:17:41;;;;;;;;;4.00;3.00;;;;;18.47;73.01;99310.75;5068898;28;45374;-59
2022/06/09 10:20:25;;;;;;;;;2.75;2.75;;;;;18.47;72.71;99324.09;5072707;28;46218;-59
2022/06/09 10:23:09;;;;;;;;;4.00;4.00;;;;;18.32;74.42;99328.69;5072441;28;45484;-59
2022/06/09 10:25:43;;;;;;;;;3.25;2.25;;;;;18.04;76.40;99321.72;5066600;28;45496;-59
2022/06/09 10:28:27;;;;;;;;;3.00;3.00;;;;;17.82;77.24;99315.22;5071831;28;45436;-59
2022/06/09 10:30:59;;;;;;;;;3.00;3.00;;;;;17.63;78.05;99329.75;5070297;28;45517;-59
2022/06/09 10:33:44;;;;;;;;;2.20;2.20;;;;;17.53;78.36;99335.78;5069216;28;45531;-59
2022/06/09 10:36:24;;;;;;;;;8.00;5.50;;;;;17.45;78.51;99321.13;5070815;28;45546;-59
2022/06/09 10:39:05;;;;;;;;;3.00;2.75;;;;;17.44;78.38;99324.75;5054343;28;45431;-59
2022/06/09 10:41:40;;;;;;;;;1.40;1.40;;;;;17.45;78.40;99314.94;5069901;28;45568;-59
2022/06/09 10:44:19;;;;;;;;;3.00;1.60;;;;;17.47;77.81;99315.72;5074122;28;45469;-59
2022/06/09 10:56:09;;;;;;;;;2.20;2.20;;;;;17.43;78.71;99323.03;5047947;28;45425;-59
2022/06/09 10:58:42;;;;;;;;;4.00;4.00;;;;;17.50;78.45;99323.50;5074421;28;45387;-59
2022/06/09 11:01:17;;;;;;;;;2.00;2.00;;;;;17.62;78.88;99328.03;5067414;28;45281;-59
2022/06/09 11:03:47;;;;;;;;;4.25;3.25;;;;;17.71;78.09;99332.81;5066347;28;45637;-59
2022/06/09 11:06:22;;;;;;;;;4.60;4.00;;;;;17.74;77.56;99324.63;5066728;28;45526;-59
2022/06/09 11:08:50;;;;;;;;;3.00;3.00;;;;;17.79;77.64;99322.47;5070365;28;45416;-59
2022/06/09 11:11:35;;;;;;;;;2.25;2.25;;;;;17.81;74.64;99335.72;5066814;28;45403;-59
2022/06/09 11:14:03;;;;;;;;;3.25;3.25;;;;;17.75;76.54;99325.47;5073660;28;46406;-59
2022/06/09 11:17:12;;;;;;;;;5.00;5.00;;;;;17.70;76.39;99330.25;5072347;28;45356;-59
2022/06/09 11:19:43;;;;;;;;;2.20;2.20;;;;;17.62;76.35;99335.19;5064785;28;45559;-59
2022/06/09 11:22:21;;;;;;;;;5.00;5.00;;;;;17.56;77.02;99336.47;5071040;28;45553;-59
2022/06/09 11:25:07;;;;;;;;;2.40;2.40;;;;;17.55;77.38;99356.06;5071892;28;46257;-59
2022/06/09 11:27:46;;;;;;;;;5.20;5.20;;;;;17.46;78.50;99340.66;5016892;28;45458;-59
2022/06/09 11:30:26;;;;;;;;;5.50;5.50;;;;;17.49;81.15;99344.94;5063908;28;45448;-58
2022/06/09 11:33:03;;;;;;;;;6.25;6.25;;;;;17.68;82.57;99340.16;5062574;28;45467;-58
2022/06/09 11:35:34;;;;;;;;;5.00;4.75;;;;;17.85;83.09;99347.91;5052539;28;47561;-58
2022/06/09 11:38:30;;;;;;;;;4.60;3.00;;;;;18.00;79.48;99354.03;5073839;28;45463;-59
2022/06/09 11:41:08;;;;;;;;;4.40;2.80;;;;;18.06;79.84;99356.28;5070108;28;45397;-58
2022/06/09 11:44:11;;;;;;;;;4.00;4.00;;;;;18.14;80.76;99351.28;5073606;28;45552;-59
2022/06/09 11:46:41;;;;;;;;;3.00;3.00;;;;;18.25;80.63;99353.25;5054755;28;47214;-59
2022/06/09 11:49:20;;;;;;;;;3.00;3.00;;;;;18.36;81.07;99348.03;5072453;28;45422;-60
2022/06/09 11:51:48;;;;;;;;;4.00;3.20;;;;;18.46;79.70;99354.44;5063106;28;45442;-59
2022/06/09 11:54:34;;;;;;;;;6.25;4.00;;;;;18.55;80.54;99358.28;5068738;28;45443;-58
2022/06/09 11:57:27;;;;;;;;;0.80;0.80;;;;;18.66;79.76;99350.41;5070428;28;45412;-59
2022/06/09 12:00:00;;;;;;;;;1.40;1.40;;;;;18.73;78.70;99359.72;5070834;28;45510;-59
2022/06/09 12:02:31;;;;;;;;;1.40;0.40;;;;;18.80;77.24;99364.50;5067302;28;45970;-59
2022/06/09 12:05:22;;;;;;;;;2.00;2.00;;;;;18.86;78.14;99355.22;5071653;28;45317;-58
2022/06/09 12:07:50;;;;;;;;;1.60;1.60;;;;;18.94;77.92;99352.00;5066711;28;46176;-59
2022/06/09 12:10:29;;;;;;;;;3.80;2.00;;;;;18.99;77.81;99345.38;5072381;28;45373;-59
2022/06/09 12:13:12;;;;;;;;;3.00;3.00;;;;;19.05;77.22;99349.44;5064928;28;45432;-59
2022/06/09 12:16:05;;;;;;;;;2.00;2.00;;;;;19.04;73.95;99347.72;5071621;28;45480;-58